sensor_id;sensor_type;location;lat;lon;timestamp;temperature;humidity
18412;DHT22;27097;51.738;19.472;2022-10-17T00:01:07;21.60;69.20
18412;DHT22;27097;51.738;19.472;2022-10-17T00:03:36;21.50;69.00
18412;DHT22;27097;51.738;19.472;2022-10-17T00:06:05;21.60;69.40
18412;DHT22;27097;51.738;19.472;2022-10-17T00:08:32;21.50;68.90
18412;DHT22;27097;51.738;19.472;2022-10-17T00:11:01;21.50;69.00
18412;DHT22;27097;51.738;19.472;2022-10-17T00:13:30;21.50;69.90
18412;DHT22;27097;51.738;19.472;2022-10-17T00:15:57;21.50;70.00
18412;DHT22;27097;51.738;19.472;2022-10-17T00:18:24;21.50;70.10
18412;DHT22;27097;51.738;19.472;2022-10-17T00:20:51;21.50;70.30
18412;DHT22;27097;51.738;19.472;2022-10-17T00:23:18;21.50;70.00
18412;DHT22;27097;51.738;19.472;2022-10-17T00:25:45;21.50;69.50
18412;DHT22;27097;51.738;19.472;2022-10-17T00:28:13;21.50;69.80
18412;DHT22;27097;51.738;19.472;2022-10-17T00:30:42;21.50;69.60
18412;DHT22;27097;51.738;19.472;2022-10-17T00:33:09;21.40;70.00
18412;DHT22;27097;51.738;19.472;2022-10-17T00:35:35;21.40;69.50
18412;DHT22;27097;51.738;19.472;2022-10-17T00:38:02;21.50;70.10
18412;DHT22;27097;51.738;19.472;2022-10-17T00:40:30;21.40;69.30
18412;DHT22;27097;51.738;19.472;2022-10-17T00:42:56;21.40;69.60
18412;DHT22;27097;51.738;19.472;2022-10-17T00:45:26;21.40;69.50
18412;DHT22;27097;51.738;19.472;2022-10-17T00:47:58;21.40;70.10
18412;DHT22;27097;51.738;19.472;2022-10-17T00:50:27;21.40;69.60
18412;DHT22;27097;51.738;19.472;2022-10-17T00:52:55;21.40;69.80
18412;DHT22;27097;51.738;19.472;2022-10-17T00:55:27;21.40;69.70
18412;DHT22;27097;51.738;19.472;2022-10-17T00:57:57;21.40;69.90
18412;DHT22;27097;51.738;19.472;2022-10-17T01:00:26;21.40;69.10
18412;DHT22;27097;51.738;19.472;2022-10-17T01:02:57;21.40;69.30
18412;DHT22;27097;51.738;19.472;2022-10-17T01:05:24;21.40;69.30
18412;DHT22;27097;51.738;19.472;2022-10-17T01:07:52;21.40;69.30
18412;DHT22;27097;51.738;19.472;2022-10-17T01:10:20;21.40;69.10
18412;DHT22;27097;51.738;19.472;2022-10-17T01:12:56;21.40;69.20
18412;DHT22;27097;51.738;19.472;2022-10-17T01:15:35;21.40;69.30
18412;DHT22;27097;51.738;19.472;2022-10-17T01:18:14;21.30;69.10
18412;DHT22;27097;51.738;19.472;2022-10-17T01:21:11;21.40;69.10
18412;DHT22;27097;51.738;19.472;2022-10-17T01:30:02;21.30;68.70
18412;DHT22;27097;51.738;19.472;2022-10-17T01:32:35;21.30;69.00
18412;DHT22;27097;51.738;19.472;2022-10-17T01:35:08;21.30;68.60
18412;DHT22;27097;51.738;19.472;2022-10-17T01:37:43;21.30;68.70
18412;DHT22;27097;51.738;19.472;2022-10-17T01:40:15;21.30;68.60
18412;DHT22;27097;51.738;19.472;2022-10-17T01:42:47;21.30;68.50
18412;DHT22;27097;51.738;19.472;2022-10-17T01:45:20;21.30;68.30
18412;DHT22;27097;51.738;19.472;2022-10-17T01:47:53;21.30;68.60
18412;DHT22;27097;51.738;19.472;2022-10-17T01:50:25;21.30;68.30
18412;DHT22;27097;51.738;19.472;2022-10-17T01:52:58;21.20;68.20
18412;DHT22;27097;51.738;19.472;2022-10-17T01:55:29;21.20;68.30
18412;DHT22;27097;51.738;19.472;2022-10-17T01:58:01;21.20;68.20
18412;DHT22;27097;51.738;19.472;2022-10-17T02:00:29;21.20;68.50
18412;DHT22;27097;51.738;19.472;2022-10-17T02:03:02;21.20;68.40
18412;DHT22;27097;51.738;19.472;2022-10-17T02:05:32;21.20;68.00
18412;DHT22;27097;51.738;19.472;2022-10-17T02:08:00;21.10;68.10
18412;DHT22;27097;51.738;19.472;2022-10-17T02:10:35;21.10;68.30
18412;DHT22;27097;51.738;19.472;2022-10-17T02:13:08;21.00;68.30
18412;DHT22;27097;51.738;19.472;2022-10-17T02:15:58;21.00;68.20
18412;DHT22;27097;51.738;19.472;2022-10-17T02:18:45;21.00;68.30
18412;DHT22;27097;51.738;19.472;2022-10-17T02:21:18;21.00;68.50
18412;DHT22;27097;51.738;19.472;2022-10-17T02:23:51;21.00;68.40
18412;DHT22;27097;51.738;19.472;2022-10-17T02:26:25;21.00;68.40
18412;DHT22;27097;51.738;19.472;2022-10-17T02:29:04;21.00;68.50
18412;DHT22;27097;51.738;19.472;2022-10-17T02:31:37;21.00;68.40
18412;DHT22;27097;51.738;19.472;2022-10-17T02:34:10;21.00;68.20
18412;DHT22;27097;51.738;19.472;2022-10-17T02:36:41;21.00;68.30
18412;DHT22;27097;51.738;19.472;2022-10-17T02:39:11;21.00;67.80
18412;DHT22;27097;51.738;19.472;2022-10-17T02:41:39;20.90;67.90
18412;DHT22;27097;51.738;19.472;2022-10-17T02:44:07;20.90;68.30
18412;DHT22;27097;51.738;19.472;2022-10-17T02:46:36;20.90;68.50
18412;DHT22;27097;51.738;19.472;2022-10-17T02:49:11;20.90;68.30
18412;DHT22;27097;51.738;19.472;2022-10-17T02:51:45;20.90;68.30
18412;DHT22;27097;51.738;19.472;2022-10-17T02:54:18;20.90;68.10
18412;DHT22;27097;51.738;19.472;2022-10-17T02:56:52;20.90;68.20
18412;DHT22;27097;51.738;19.472;2022-10-17T02:59:22;20.90;67.90
18412;DHT22;27097;51.738;19.472;2022-10-17T03:01:51;20.90;68.00
18412;DHT22;27097;51.738;19.472;2022-10-17T03:04:19;20.90;68.10
18412;DHT22;27097;51.738;19.472;2022-10-17T03:06:47;20.90;67.80
18412;DHT22;27097;51.738;19.472;2022-10-17T03:09:15;20.90;67.80
18412;DHT22;27097;51.738;19.472;2022-10-17T03:11:42;20.90;67.50
18412;DHT22;27097;51.738;19.472;2022-10-17T03:14:08;20.90;67.80
18412;DHT22;27097;51.738;19.472;2022-10-17T03:16:35;20.90;67.40
18412;DHT22;27097;51.738;19.472;2022-10-17T03:19:03;20.90;67.20
18412;DHT22;27097;51.738;19.472;2022-10-17T03:21:31;20.90;67.00
18412;DHT22;27097;51.738;19.472;2022-10-17T03:23:58;20.80;67.50
18412;DHT22;27097;51.738;19.472;2022-10-17T03:26:25;20.80;67.60
18412;DHT22;27097;51.738;19.472;2022-10-17T03:28:51;20.90;67.60
18412;DHT22;27097;51.738;19.472;2022-10-17T03:31:18;20.80;67.40
18412;DHT22;27097;51.738;19.472;2022-10-17T03:33:45;20.80;67.30
18412;DHT22;27097;51.738;19.472;2022-10-17T03:36:13;20.80;67.40
18412;DHT22;27097;51.738;19.472;2022-10-17T03:38:42;20.80;67.40
18412;DHT22;27097;51.738;19.472;2022-10-17T03:41:10;20.80;67.30
18412;DHT22;27097;51.738;19.472;2022-10-17T03:43:37;20.80;67.40
18412;DHT22;27097;51.738;19.472;2022-10-17T03:46:04;20.80;67.50
18412;DHT22;27097;51.738;19.472;2022-10-17T03:48:31;20.80;67.50
18412;DHT22;27097;51.738;19.472;2022-10-17T03:50:59;20.80;67.40
18412;DHT22;27097;51.738;19.472;2022-10-17T03:53:26;20.80;67.00
18412;DHT22;27097;51.738;19.472;2022-10-17T03:55:55;20.80;67.20
18412;DHT22;27097;51.738;19.472;2022-10-17T03:58:22;20.80;67.40
18412;DHT22;27097;51.738;19.472;2022-10-17T04:00:49;20.70;66.90
18412;DHT22;27097;51.738;19.472;2022-10-17T04:03:17;20.80;67.10
18412;DHT22;27097;51.738;19.472;2022-10-17T04:05:44;20.70;67.40
18412;DHT22;27097;51.738;19.472;2022-10-17T04:08:11;20.70;67.40
18412;DHT22;27097;51.738;19.472;2022-10-17T04:10:38;20.70;67.20
18412;DHT22;27097;51.738;19.472;2022-10-17T04:13:06;20.70;67.10
18412;DHT22;27097;51.738;19.472;2022-10-17T04:15:33;20.70;67.30
18412;DHT22;27097;51.738;19.472;2022-10-17T04:18:00;20.70;67.00
18412;DHT22;27097;51.738;19.472;2022-10-17T04:20:27;20.70;68.00
18412;DHT22;27097;51.738;19.472;2022-10-17T04:22:54;20.70;67.20
18412;DHT22;27097;51.738;19.472;2022-10-17T04:25:20;20.70;67.10
18412;DHT22;27097;51.738;19.472;2022-10-17T04:27:47;20.70;67.30
18412;DHT22;27097;51.738;19.472;2022-10-17T04:30:16;20.60;67.00
18412;DHT22;27097;51.738;19.472;2022-10-17T04:32:43;20.60;66.80
18412;DHT22;27097;51.738;19.472;2022-10-17T04:35:10;20.60;66.60
18412;DHT22;27097;51.738;19.472;2022-10-17T04:37:36;20.60;67.70
18412;DHT22;27097;51.738;19.472;2022-10-17T04:40:04;20.60;67.10
18412;DHT22;27097;51.738;19.472;2022-10-17T04:42:31;20.60;66.90
18412;DHT22;27097;51.738;19.472;2022-10-17T04:44:58;20.60;66.70
18412;DHT22;27097;51.738;19.472;2022-10-17T04:47:26;20.50;67.10
18412;DHT22;27097;51.738;19.472;2022-10-17T04:49:53;20.50;67.20
18412;DHT22;27097;51.738;19.472;2022-10-17T04:52:20;20.50;66.90
18412;DHT22;27097;51.738;19.472;2022-10-17T04:54:47;20.50;66.80
18412;DHT22;27097;51.738;19.472;2022-10-17T04:57:14;20.50;67.10
18412;DHT22;27097;51.738;19.472;2022-10-17T04:59:41;20.50;66.90
18412;DHT22;27097;51.738;19.472;2022-10-17T05:02:08;20.50;66.90
18412;DHT22;27097;51.738;19.472;2022-10-17T05:04:36;20.50;66.90
18412;DHT22;27097;51.738;19.472;2022-10-17T05:07:03;20.50;66.80
18412;DHT22;27097;51.738;19.472;2022-10-17T05:09:30;20.50;66.70
18412;DHT22;27097;51.738;19.472;2022-10-17T05:11:57;20.50;66.40
18412;DHT22;27097;51.738;19.472;2022-10-17T05:14:24;20.50;66.50
18412;DHT22;27097;51.738;19.472;2022-10-17T05:16:51;20.50;66.40
18412;DHT22;27097;51.738;19.472;2022-10-17T05:19:18;20.50;66.40
18412;DHT22;27097;51.738;19.472;2022-10-17T05:21:46;20.50;66.40
18412;DHT22;27097;51.738;19.472;2022-10-17T05:24:13;20.50;66.40
18412;DHT22;27097;51.738;19.472;2022-10-17T05:26:40;20.50;66.40
18412;DHT22;27097;51.738;19.472;2022-10-17T05:29:11;20.50;66.40
18412;DHT22;27097;51.738;19.472;2022-10-17T05:31:37;20.50;65.90
18412;DHT22;27097;51.738;19.472;2022-10-17T05:34:04;20.40;66.60
18412;DHT22;27097;51.738;19.472;2022-10-17T05:36:31;20.50;68.10
18412;DHT22;27097;51.738;19.472;2022-10-17T05:38:59;20.60;68.90
18412;DHT22;27097;51.738;19.472;2022-10-17T05:41:26;20.70;69.00
18412;DHT22;27097;51.738;19.472;2022-10-17T05:43:53;20.70;69.30
18412;DHT22;27097;51.738;19.472;2022-10-17T05:46:20;20.90;69.40
18412;DHT22;27097;51.738;19.472;2022-10-17T05:48:47;20.90;69.40
18412;DHT22;27097;51.738;19.472;2022-10-17T05:51:14;21.00;71.10
18412;DHT22;27097;51.738;19.472;2022-10-17T05:53:41;21.10;71.40
18412;DHT22;27097;51.738;19.472;2022-10-17T05:56:11;21.10;71.60
18412;DHT22;27097;51.738;19.472;2022-10-17T05:58:39;21.20;73.10
18412;DHT22;27097;51.738;19.472;2022-10-17T06:01:07;21.30;73.30
18412;DHT22;27097;51.738;19.472;2022-10-17T06:03:35;21.30;73.50
18412;DHT22;27097;51.738;19.472;2022-10-17T06:06:03;21.30;73.60
18412;DHT22;27097;51.738;19.472;2022-10-17T06:08:30;21.40;73.80
18412;DHT22;27097;51.738;19.472;2022-10-17T06:10:57;21.40;73.60
18412;DHT22;27097;51.738;19.472;2022-10-17T06:13:26;21.40;73.60
18412;DHT22;27097;51.738;19.472;2022-10-17T06:15:53;21.40;73.50
18412;DHT22;27097;51.738;19.472;2022-10-17T06:18:20;21.40;73.30
18412;DHT22;27097;51.738;19.472;2022-10-17T06:20:47;21.40;73.00
18412;DHT22;27097;51.738;19.472;2022-10-17T06:23:14;21.50;72.90
18412;DHT22;27097;51.738;19.472;2022-10-17T06:25:41;21.50;72.90
18412;DHT22;27097;51.738;19.472;2022-10-17T06:28:08;21.50;72.90
18412;DHT22;27097;51.738;19.472;2022-10-17T06:30:38;21.50;72.90
18412;DHT22;27097;51.738;19.472;2022-10-17T06:33:05;21.60;72.90
18412;DHT22;27097;51.738;19.472;2022-10-17T06:35:32;21.60;72.70
18412;DHT22;27097;51.738;19.472;2022-10-17T06:37:59;21.60;72.70
18412;DHT22;27097;51.738;19.472;2022-10-17T06:40:26;21.60;73.30
18412;DHT22;27097;51.738;19.472;2022-10-17T06:42:53;21.70;73.50
18412;DHT22;27097;51.738;19.472;2022-10-17T06:45:20;21.70;73.20
18412;DHT22;27097;51.738;19.472;2022-10-17T06:47:48;21.80;73.60
18412;DHT22;27097;51.738;19.472;2022-10-17T06:50:15;21.90;74.10
18412;DHT22;27097;51.738;19.472;2022-10-17T06:52:42;21.90;73.60
18412;DHT22;27097;51.738;19.472;2022-10-17T06:55:09;22.00;73.00
18412;DHT22;27097;51.738;19.472;2022-10-17T06:57:36;22.00;72.70
18412;DHT22;27097;51.738;19.472;2022-10-17T07:00:03;22.10;72.50
18412;DHT22;27097;51.738;19.472;2022-10-17T07:02:31;22.10;72.20
18412;DHT22;27097;51.738;19.472;2022-10-17T07:04:59;22.20;72.00
18412;DHT22;27097;51.738;19.472;2022-10-17T07:07:29;22.20;71.90
18412;DHT22;27097;51.738;19.472;2022-10-17T07:09:57;22.20;71.60
18412;DHT22;27097;51.738;19.472;2022-10-17T07:12:24;22.30;71.50
18412;DHT22;27097;51.738;19.472;2022-10-17T07:14:51;22.30;71.30
18412;DHT22;27097;51.738;19.472;2022-10-17T07:17:18;22.30;71.20
18412;DHT22;27097;51.738;19.472;2022-10-17T07:19:45;22.30;71.20
18412;DHT22;27097;51.738;19.472;2022-10-17T07:22:15;22.30;71.20
18412;DHT22;27097;51.738;19.472;2022-10-17T07:24:42;22.40;71.20
18412;DHT22;27097;51.738;19.472;2022-10-17T07:27:08;22.40;71.00
18412;DHT22;27097;51.738;19.472;2022-10-17T07:29:35;22.40;71.20
18412;DHT22;27097;51.738;19.472;2022-10-17T07:32:02;22.40;71.20
18412;DHT22;27097;51.738;19.472;2022-10-17T07:34:33;22.40;71.20
18412;DHT22;27097;51.738;19.472;2022-10-17T07:37:00;22.50;71.10
18412;DHT22;27097;51.738;19.472;2022-10-17T07:39:28;22.50;71.00
18412;DHT22;27097;51.738;19.472;2022-10-17T07:41:55;22.50;71.40
18412;DHT22;27097;51.738;19.472;2022-10-17T07:44:23;22.60;71.30
18412;DHT22;27097;51.738;19.472;2022-10-17T07:46:50;22.60;71.20
18412;DHT22;27097;51.738;19.472;2022-10-17T07:49:17;22.60;71.30
18412;DHT22;27097;51.738;19.472;2022-10-17T07:51:44;22.60;71.00
18412;DHT22;27097;51.738;19.472;2022-10-17T07:54:11;22.60;70.80
18412;DHT22;27097;51.738;19.472;2022-10-17T07:56:40;22.70;70.80
18412;DHT22;27097;51.738;19.472;2022-10-17T07:59:06;22.70;71.00
18412;DHT22;27097;51.738;19.472;2022-10-17T08:01:33;22.70;70.90
18412;DHT22;27097;51.738;19.472;2022-10-17T08:04:00;22.70;71.00
18412;DHT22;27097;51.738;19.472;2022-10-17T08:06:27;22.70;71.00
18412;DHT22;27097;51.738;19.472;2022-10-17T08:08:54;22.70;71.20
18412;DHT22;27097;51.738;19.472;2022-10-17T08:11:22;22.70;71.40
18412;DHT22;27097;51.738;19.472;2022-10-17T08:13:51;22.80;71.30
18412;DHT22;27097;51.738;19.472;2022-10-17T08:16:18;22.80;71.40
18412;DHT22;27097;51.738;19.472;2022-10-17T08:18:45;22.80;71.40
18412;DHT22;27097;51.738;19.472;2022-10-17T08:21:12;22.80;71.40
18412;DHT22;27097;51.738;19.472;2022-10-17T08:23:39;22.90;71.70
18412;DHT22;27097;51.738;19.472;2022-10-17T08:26:07;22.90;68.70
18412;DHT22;27097;51.738;19.472;2022-10-17T08:28:35;23.00;66.20
18412;DHT22;27097;51.738;19.472;2022-10-17T08:31:05;23.10;64.10
18412;DHT22;27097;51.738;19.472;2022-10-17T08:33:33;23.20;65.10
18412;DHT22;27097;51.738;19.472;2022-10-17T08:36:00;23.30;64.10
18412;DHT22;27097;51.738;19.472;2022-10-17T08:38:28;23.30;63.00
18412;DHT22;27097;51.738;19.472;2022-10-17T08:40:58;23.40;62.50
18412;DHT22;27097;51.738;19.472;2022-10-17T08:43:42;23.40;62.50
18412;DHT22;27097;51.738;19.472;2022-10-17T08:46:14;23.40;62.40
18412;DHT22;27097;51.738;19.472;2022-10-17T08:48:42;23.50;61.00
18412;DHT22;27097;51.738;19.472;2022-10-17T08:51:14;23.50;61.30
18412;DHT22;27097;51.738;19.472;2022-10-17T08:53:48;23.50;60.70
18412;DHT22;27097;51.738;19.472;2022-10-17T08:56:18;23.60;61.70
18412;DHT22;27097;51.738;19.472;2022-10-17T08:58:46;23.60;61.80
18412;DHT22;27097;51.738;19.472;2022-10-17T09:01:27;23.60;61.80
18412;DHT22;27097;51.738;19.472;2022-10-17T09:04:05;23.60;62.40
18412;DHT22;27097;51.738;19.472;2022-10-17T09:06:38;23.60;63.10
18412;DHT22;27097;51.738;19.472;2022-10-17T09:09:21;23.60;63.40
18412;DHT22;27097;51.738;19.472;2022-10-17T09:11:59;23.60;63.40
18412;DHT22;27097;51.738;19.472;2022-10-17T09:14:53;23.70;64.20
18412;DHT22;27097;51.738;19.472;2022-10-17T09:17:34;23.70;65.30
18412;DHT22;27097;51.738;19.472;2022-10-17T09:20:08;23.70;66.50
18412;DHT22;27097;51.738;19.472;2022-10-17T09:22:39;23.70;66.70
18412;DHT22;27097;51.738;19.472;2022-10-17T09:25:10;23.70;66.30
18412;DHT22;27097;51.738;19.472;2022-10-17T09:27:41;23.70;67.80
18412;DHT22;27097;51.738;19.472;2022-10-17T09:30:27;23.70;67.70
18412;DHT22;27097;51.738;19.472;2022-10-17T09:32:57;23.70;68.10
18412;DHT22;27097;51.738;19.472;2022-10-17T09:35:26;23.70;69.00
18412;DHT22;27097;51.738;19.472;2022-10-17T09:37:55;23.70;68.70
18412;DHT22;27097;51.738;19.472;2022-10-17T09:40:25;23.70;68.10
18412;DHT22;27097;51.738;19.472;2022-10-17T09:42:52;23.80;68.50
18412;DHT22;27097;51.738;19.472;2022-10-17T09:45:21;23.80;68.80
18412;DHT22;27097;51.738;19.472;2022-10-17T09:47:58;23.80;68.50
18412;DHT22;27097;51.738;19.472;2022-10-17T09:50:28;23.80;68.50
18412;DHT22;27097;51.738;19.472;2022-10-17T09:52:58;23.80;68.50
18412;DHT22;27097;51.738;19.472;2022-10-17T09:55:32;23.90;68.90
18412;DHT22;27097;51.738;19.472;2022-10-17T09:58:04;23.90;69.00
18412;DHT22;27097;51.738;19.472;2022-10-17T10:00:35;23.90;69.00
18412;DHT22;27097;51.738;19.472;2022-10-17T10:03:25;24.00;68.10
18412;DHT22;27097;51.738;19.472;2022-10-17T10:06:00;24.00;68.80
18412;DHT22;27097;51.738;19.472;2022-10-17T10:08:29;24.00;69.20
18412;DHT22;27097;51.738;19.472;2022-10-17T10:10:58;23.90;68.60
18412;DHT22;27097;51.738;19.472;2022-10-17T10:13:28;23.90;67.90
18412;DHT22;27097;51.738;19.472;2022-10-17T10:16:13;23.90;68.60
18412;DHT22;27097;51.738;19.472;2022-10-17T10:18:42;24.00;67.00
18412;DHT22;27097;51.738;19.472;2022-10-17T10:21:11;24.00;66.00
18412;DHT22;27097;51.738;19.472;2022-10-17T10:23:39;24.00;60.80
18412;DHT22;27097;51.738;19.472;2022-10-17T10:26:21;24.00;63.10
18412;DHT22;27097;51.738;19.472;2022-10-17T10:28:55;24.00;63.60
18412;DHT22;27097;51.738;19.472;2022-10-17T10:31:29;24.10;63.50
18412;DHT22;27097;51.738;19.472;2022-10-17T10:33:59;24.10;63.00
18412;DHT22;27097;51.738;19.472;2022-10-17T10:36:45;24.10;62.80
18412;DHT22;27097;51.738;19.472;2022-10-17T10:39:31;24.10;63.90
18412;DHT22;27097;51.738;19.472;2022-10-17T10:41:59;24.10;63.90
18412;DHT22;27097;51.738;19.472;2022-10-17T10:44:28;24.10;64.10
18412;DHT22;27097;51.738;19.472;2022-10-17T10:47:08;24.10;64.30
18412;DHT22;27097;51.738;19.472;2022-10-17T10:49:41;24.10;63.60
18412;DHT22;27097;51.738;19.472;2022-10-17T10:52:14;24.20;63.40
18412;DHT22;27097;51.738;19.472;2022-10-17T10:54:48;24.20;63.10
18412;DHT22;27097;51.738;19.472;2022-10-17T10:57:20;24.20;62.90
18412;DHT22;27097;51.738;19.472;2022-10-17T10:59:53;24.30;62.90
18412;DHT22;27097;51.738;19.472;2022-10-17T11:02:27;24.30;63.10
18412;DHT22;27097;51.738;19.472;2022-10-17T11:05:00;24.30;62.30
18412;DHT22;27097;51.738;19.472;2022-10-17T11:07:31;24.30;62.60
18412;DHT22;27097;51.738;19.472;2022-10-17T11:10:04;24.30;62.80
18412;DHT22;27097;51.738;19.472;2022-10-17T11:12:36;24.30;62.50
18412;DHT22;27097;51.738;19.472;2022-10-17T11:15:13;24.30;62.50
18412;DHT22;27097;51.738;19.472;2022-10-17T11:17:47;24.30;62.30
18412;DHT22;27097;51.738;19.472;2022-10-17T11:20:21;24.30;62.70
18412;DHT22;27097;51.738;19.472;2022-10-17T11:22:54;24.30;62.30
18412;DHT22;27097;51.738;19.472;2022-10-17T11:25:31;24.30;62.60
18412;DHT22;27097;51.738;19.472;2022-10-17T11:27:59;24.30;62.00
18412;DHT22;27097;51.738;19.472;2022-10-17T11:30:31;24.30;62.10
18412;DHT22;27097;51.738;19.472;2022-10-17T11:33:02;24.30;62.10
18412;DHT22;27097;51.738;19.472;2022-10-17T11:35:34;24.30;62.00
18412;DHT22;27097;51.738;19.472;2022-10-17T11:38:15;24.30;61.80
18412;DHT22;27097;51.738;19.472;2022-10-17T11:40:47;24.30;62.10
18412;DHT22;27097;51.738;19.472;2022-10-17T11:43:19;24.30;62.10
18412;DHT22;27097;51.738;19.472;2022-10-17T11:45:50;24.30;61.80
18412;DHT22;27097;51.738;19.472;2022-10-17T11:48:22;24.30;63.00
18412;DHT22;27097;51.738;19.472;2022-10-17T11:50:54;24.30;61.60
18412;DHT22;27097;51.738;19.472;2022-10-17T11:53:30;24.30;62.20
18412;DHT22;27097;51.738;19.472;2022-10-17T11:55:59;24.30;62.70
18412;DHT22;27097;51.738;19.472;2022-10-17T11:58:34;24.30;61.80
18412;DHT22;27097;51.738;19.472;2022-10-17T12:01:11;24.30;61.90
18412;DHT22;27097;51.738;19.472;2022-10-17T12:03:52;24.30;62.20
18412;DHT22;27097;51.738;19.472;2022-10-17T12:06:35;24.20;62.00
18412;DHT22;27097;51.738;19.472;2022-10-17T12:09:09;24.20;62.50
18412;DHT22;27097;51.738;19.472;2022-10-17T12:11:44;24.20;62.30
18412;DHT22;27097;51.738;19.472;2022-10-17T12:17:28;24.10;62.70
18412;DHT22;27097;51.738;19.472;2022-10-17T12:20:23;24.10;63.40
18412;DHT22;27097;51.738;19.472;2022-10-17T12:22:54;24.00;63.30
18412;DHT22;27097;51.738;19.472;2022-10-17T12:25:23;24.10;63.00
18412;DHT22;27097;51.738;19.472;2022-10-17T12:28:12;24.00;63.40
18412;DHT22;27097;51.738;19.472;2022-10-17T12:30:52;24.00;62.70
18412;DHT22;27097;51.738;19.472;2022-10-17T12:33:20;24.00;63.20
18412;DHT22;27097;51.738;19.472;2022-10-17T12:35:49;24.00;63.40
18412;DHT22;27097;51.738;19.472;2022-10-17T12:38:24;24.00;63.00
18412;DHT22;27097;51.738;19.472;2022-10-17T12:40:59;23.90;63.60
18412;DHT22;27097;51.738;19.472;2022-10-17T12:46:48;23.90;63.60
18412;DHT22;27097;51.738;19.472;2022-10-17T12:52:20;23.90;60.00
18412;DHT22;27097;51.738;19.472;2022-10-17T12:54:53;23.90;61.10
18412;DHT22;27097;51.738;19.472;2022-10-17T12:57:24;23.90;61.50
18412;DHT22;27097;51.738;19.472;2022-10-17T12:59:52;23.90;61.60
18412;DHT22;27097;51.738;19.472;2022-10-17T13:02:21;23.90;62.00
18412;DHT22;27097;51.738;19.472;2022-10-17T13:04:54;23.90;62.00
18412;DHT22;27097;51.738;19.472;2022-10-17T13:07:22;24.00;62.10
18412;DHT22;27097;51.738;19.472;2022-10-17T13:09:51;24.00;62.10
18412;DHT22;27097;51.738;19.472;2022-10-17T13:12:21;24.10;61.80
18412;DHT22;27097;51.738;19.472;2022-10-17T13:14:50;24.10;61.60
18412;DHT22;27097;51.738;19.472;2022-10-17T13:17:24;24.10;62.00
18412;DHT22;27097;51.738;19.472;2022-10-17T13:19:52;24.10;62.00
18412;DHT22;27097;51.738;19.472;2022-10-17T13:22:20;24.20;61.70
18412;DHT22;27097;51.738;19.472;2022-10-17T13:24:49;24.20;62.50
18412;DHT22;27097;51.738;19.472;2022-10-17T13:27:26;24.20;62.30
18412;DHT22;27097;51.738;19.472;2022-10-17T13:29:53;24.20;62.50
18412;DHT22;27097;51.738;19.472;2022-10-17T13:32:22;24.20;62.10
18412;DHT22;27097;51.738;19.472;2022-10-17T13:35:04;24.20;62.60
18412;DHT22;27097;51.738;19.472;2022-10-17T13:37:33;24.30;61.80
18412;DHT22;27097;51.738;19.472;2022-10-17T13:40:00;24.30;61.80
18412;DHT22;27097;51.738;19.472;2022-10-17T13:42:36;24.30;62.50
18412;DHT22;27097;51.738;19.472;2022-10-17T13:45:12;24.30;62.50
18412;DHT22;27097;51.738;19.472;2022-10-17T13:47:41;24.30;62.30
18412;DHT22;27097;51.738;19.472;2022-10-17T13:50:18;24.30;62.70
18412;DHT22;27097;51.738;19.472;2022-10-17T13:52:46;24.30;62.60
18412;DHT22;27097;51.738;19.472;2022-10-17T13:55:15;24.30;62.40
18412;DHT22;27097;51.738;19.472;2022-10-17T13:57:46;24.30;62.00
18412;DHT22;27097;51.738;19.472;2022-10-17T14:00:18;24.30;61.80
18412;DHT22;27097;51.738;19.472;2022-10-17T14:02:46;24.30;62.00
18412;DHT22;27097;51.738;19.472;2022-10-17T14:05:15;24.30;62.30
18412;DHT22;27097;51.738;19.472;2022-10-17T14:07:45;24.30;61.50
18412;DHT22;27097;51.738;19.472;2022-10-17T14:10:20;24.30;61.70
18412;DHT22;27097;51.738;19.472;2022-10-17T14:12:50;24.30;62.00
18412;DHT22;27097;51.738;19.472;2022-10-17T14:15:18;24.30;62.00
18412;DHT22;27097;51.738;19.472;2022-10-17T14:17:45;24.30;62.40
18412;DHT22;27097;51.738;19.472;2022-10-17T14:20:17;24.30;62.20
18412;DHT22;27097;51.738;19.472;2022-10-17T14:22:45;24.20;62.20
18412;DHT22;27097;51.738;19.472;2022-10-17T14:25:32;24.10;63.00
18412;DHT22;27097;51.738;19.472;2022-10-17T14:28:11;24.10;61.50
18412;DHT22;27097;51.738;19.472;2022-10-17T14:30:41;24.10;61.60
18412;DHT22;27097;51.738;19.472;2022-10-17T14:33:14;24.10;61.60
18412;DHT22;27097;51.738;19.472;2022-10-17T14:35:48;24.10;62.00
18412;DHT22;27097;51.738;19.472;2022-10-17T14:38:16;24.10;62.30
18412;DHT22;27097;51.738;19.472;2022-10-17T14:40:49;24.10;63.50
18412;DHT22;27097;51.738;19.472;2022-10-17T14:43:21;24.10;63.40
18412;DHT22;27097;51.738;19.472;2022-10-17T14:45:49;24.10;63.60
18412;DHT22;27097;51.738;19.472;2022-10-17T14:48:19;24.10;62.70
18412;DHT22;27097;51.738;19.472;2022-10-17T14:51:06;24.10;63.00
18412;DHT22;27097;51.738;19.472;2022-10-17T14:53:33;24.10;62.20
18412;DHT22;27097;51.738;19.472;2022-10-17T14:56:03;24.10;62.10
18412;DHT22;27097;51.738;19.472;2022-10-17T14:58:32;24.00;61.90
18412;DHT22;27097;51.738;19.472;2022-10-17T15:01:00;24.00;62.00
18412;DHT22;27097;51.738;19.472;2022-10-17T15:03:27;24.00;62.30
18412;DHT22;27097;51.738;19.472;2022-10-17T15:05:54;24.00;62.30
18412;DHT22;27097;51.738;19.472;2022-10-17T15:08:22;24.00;62.50
18412;DHT22;27097;51.738;19.472;2022-10-17T15:10:50;24.00;62.50
18412;DHT22;27097;51.738;19.472;2022-10-17T15:13:18;24.00;61.90
18412;DHT22;27097;51.738;19.472;2022-10-17T15:15:46;24.00;61.80
18412;DHT22;27097;51.738;19.472;2022-10-17T15:18:16;23.90;61.90
18412;DHT22;27097;51.738;19.472;2022-10-17T15:20:43;23.90;62.00
18412;DHT22;27097;51.738;19.472;2022-10-17T15:23:10;23.90;61.90
18412;DHT22;27097;51.738;19.472;2022-10-17T15:25:36;23.90;62.00
18412;DHT22;27097;51.738;19.472;2022-10-17T15:28:04;23.90;62.20
18412;DHT22;27097;51.738;19.472;2022-10-17T15:30:33;23.80;62.40
18412;DHT22;27097;51.738;19.472;2022-10-17T15:33:02;23.80;61.90
18412;DHT22;27097;51.738;19.472;2022-10-17T15:35:29;23.80;62.10
18412;DHT22;27097;51.738;19.472;2022-10-17T15:37:56;23.80;61.70
18412;DHT22;27097;51.738;19.472;2022-10-17T15:40:25;23.80;62.50
18412;DHT22;27097;51.738;19.472;2022-10-17T15:42:53;23.70;62.80
18412;DHT22;27097;51.738;19.472;2022-10-17T15:45:21;23.70;62.90
18412;DHT22;27097;51.738;19.472;2022-10-17T15:47:50;23.70;63.30
18412;DHT22;27097;51.738;19.472;2022-10-17T15:50:19;23.70;63.90